createdAt,value
2022-11-22T00:01:18.327Z,0
2022-11-22T00:06:18.316Z,0
2022-11-22T00:11:18.319Z,0
2022-11-22T00:16:18.368Z,0
2022-11-22T00:21:18.316Z,0
2022-11-22T00:26:18.298Z,0
2022-11-22T00:31:18.286Z,0
2022-11-22T00:36:18.465Z,0
2022-11-22T00:41:18.290Z,0
2022-11-22T00:46:18.276Z,0
2022-11-22T00:51:18.313Z,0
2022-11-22T00:56:18.338Z,0
2022-11-22T01:01:18.369Z,0
2022-11-22T01:06:18.280Z,0
2022-11-22T01:11:18.272Z,0
2022-11-22T01:16:18.332Z,0
2022-11-22T01:21:18.284Z,0
2022-11-22T01:26:18.293Z,0
2022-11-22T01:31:18.287Z,0
2022-11-22T01:36:18.302Z,0
2022-11-22T01:41:18.280Z,0
2022-11-22T01:46:18.281Z,0
2022-11-22T01:51:18.259Z,0
2022-11-22T01:56:18.315Z,0
2022-11-22T02:01:18.355Z,0
2022-11-22T02:06:18.278Z,0
2022-11-22T02:11:18.267Z,0
2022-11-22T02:16:18.301Z,0
2022-11-22T02:21:18.292Z,0
2022-11-22T02:26:18.277Z,0
2022-11-22T02:31:18.276Z,0
2022-11-22T02:36:18.290Z,0
2022-11-22T02:41:18.242Z,0
2022-11-22T02:46:18.272Z,0
2022-11-22T02:51:18.281Z,0
2022-11-22T02:56:18.263Z,0
2022-11-22T03:01:18.310Z,0
2022-11-22T03:06:18.276Z,0
2022-11-22T03:11:18.269Z,0
2022-11-22T03:16:18.237Z,0
2022-11-22T03:21:18.241Z,0
2022-11-22T03:26:18.254Z,0
2022-11-22T03:31:18.269Z,0
2022-11-22T03:36:18.267Z,0
2022-11-22T03:41:18.222Z,0
2022-11-22T03:46:18.236Z,0
2022-11-22T03:51:18.255Z,0
2022-11-22T03:56:18.285Z,0
2022-11-22T04:01:18.257Z,0
2022-11-22T04:06:18.260Z,0
2022-11-22T04:11:18.206Z,0
2022-11-22T04:16:18.249Z,0
2022-11-22T04:21:18.231Z,0
2022-11-22T04:26:18.212Z,0
2022-11-22T04:31:18.225Z,0
2022-11-22T04:36:18.277Z,0
2022-11-22T04:41:18.202Z,0
2022-11-22T04:46:18.235Z,0
2022-11-22T04:51:18.195Z,0
2022-11-22T04:56:18.247Z,0
2022-11-22T05:01:18.313Z,0
2022-11-22T05:06:18.191Z,0
2022-11-22T05:11:18.183Z,0
2022-11-22T05:16:18.233Z,0
2022-11-22T05:21:18.230Z,0
2022-11-22T05:26:18.221Z,0
2022-11-22T05:31:18.209Z,0
2022-11-22T05:36:18.206Z,0
2022-11-22T05:41:18.187Z,0
2022-11-22T05:46:22.433Z,0
2022-11-22T05:51:18.190Z,0
2022-11-22T05:56:18.203Z,0
2022-11-22T06:01:18.174Z,0
2022-11-22T06:06:18.170Z,0
2022-11-22T06:11:18.159Z,0
2022-11-22T06:16:18.233Z,0
2022-11-22T06:21:18.163Z,0
2022-11-22T06:26:18.193Z,0
2022-11-22T06:31:18.197Z,0
2022-11-22T06:36:18.187Z,0
2022-11-22T06:41:18.178Z,0
2022-11-22T06:46:18.153Z,0
2022-11-22T06:51:18.218Z,0
2022-11-22T06:56:18.188Z,0
2022-11-22T07:01:18.213Z,0
2022-11-22T07:06:18.189Z,0
2022-11-22T07:11:18.177Z,0
2022-11-22T07:16:18.201Z,0
2022-11-22T07:21:18.143Z,0
2022-11-22T07:26:18.147Z,2
2022-11-22T07:31:18.175Z,5
2022-11-22T07:36:18.157Z,7
2022-11-22T07:41:18.155Z,14
2022-11-22T07:46:18.168Z,16
2022-11-22T07:51:18.144Z,22
2022-11-22T07:56:18.267Z,37
2022-11-22T08:01:18.219Z,48
2022-11-22T08:06:18.133Z,55
2022-11-22T08:11:18.128Z,64
2022-11-22T08:16:18.272Z,69
2022-11-22T08:21:18.134Z,102
2022-11-22T08:26:18.150Z,160
2022-11-22T08:31:18.144Z,100
2022-11-22T08:36:18.269Z,92
2022-11-22T08:41:18.139Z,108
2022-11-22T08:46:18.163Z,143
2022-11-22T08:51:18.162Z,285
2022-11-22T08:56:18.258Z,189
2022-11-22T09:01:18.171Z,255
2022-11-22T09:11:18.125Z,276
2022-11-22T09:16:18.257Z,338
2022-11-22T09:21:18.123Z,379
2022-11-22T09:26:18.120Z,325
2022-11-22T09:31:18.145Z,304
2022-11-22T09:36:18.270Z,317
2022-11-22T09:41:18.165Z,293
2022-11-22T09:46:18.100Z,211
2022-11-22T09:51:18.108Z,218
2022-11-22T09:56:18.240Z,184
2022-11-22T10:01:18.216Z,88
2022-11-22T10:06:18.097Z,94
2022-11-22T10:11:18.100Z,97
2022-11-22T10:16:18.195Z,82
2022-11-22T10:21:18.119Z,93
2022-11-22T10:26:18.112Z,109
2022-11-22T10:31:18.125Z,110
2022-11-22T10:36:18.238Z,100
2022-11-22T10:41:18.107Z,98
2022-11-22T10:46:18.120Z,113
2022-11-22T10:51:23.076Z,107
2022-11-22T10:56:22.971Z,87
2022-11-22T11:01:22.961Z,104
2022-11-22T11:06:33.255Z,103
2022-11-22T11:11:23.071Z,94
2022-11-22T11:16:22.933Z,94
2022-11-22T11:21:22.937Z,105
2022-11-22T11:26:22.916Z,126
2022-11-22T11:31:23.041Z,155
2022-11-22T11:36:22.915Z,169
2022-11-22T11:41:22.934Z,219
2022-11-22T11:46:22.942Z,242
2022-11-22T11:51:23.048Z,230
2022-11-22T11:56:22.922Z,325
2022-11-22T12:01:22.951Z,300
2022-11-22T12:06:22.941Z,239
2022-11-22T12:11:23.061Z,313
2022-11-22T12:16:22.951Z,326
2022-11-22T12:21:22.948Z,342
2022-11-22T12:26:22.917Z,349
2022-11-22T12:31:22.952Z,309
2022-11-22T12:36:23.278Z,408
2022-11-22T12:41:22.915Z,464
2022-11-22T12:46:26.399Z,443
2022-11-22T12:51:23.040Z,436
2022-11-22T12:56:23.400Z,377
2022-11-22T13:01:22.909Z,240
2022-11-22T13:06:22.907Z,395
2022-11-22T13:11:23.042Z,368
2022-11-22T13:16:22.919Z,51
2022-11-22T13:21:22.890Z,33
2022-11-22T13:26:22.896Z,20
2022-11-22T13:31:23.252Z,31
2022-11-22T13:36:22.900Z,35
2022-11-22T13:41:22.907Z,20
2022-11-22T13:46:22.941Z,16
2022-11-22T13:51:23.117Z,22
2022-11-22T13:56:22.905Z,24
2022-11-22T14:01:22.956Z,19
2022-11-22T14:06:22.917Z,15
2022-11-22T14:11:23.039Z,16
2022-11-22T14:16:22.902Z,12
2022-11-22T14:21:22.898Z,10
2022-11-22T14:26:22.874Z,14
2022-11-22T14:31:22.929Z,10
2022-11-22T14:36:22.880Z,14
2022-11-22T14:41:22.893Z,5
2022-11-22T14:46:45.678Z,4
2022-11-22T14:51:24.127Z,1
2022-11-22T14:56:22.920Z,3
2022-11-22T15:01:22.922Z,3
2022-11-22T15:09:09.473Z,2
2022-11-22T15:11:22.914Z,3
2022-11-22T16:01:22.930Z,0
2022-11-22T16:06:22.903Z,0
2022-11-22T16:11:23.081Z,0
2022-11-22T16:16:22.865Z,0
2022-11-22T16:21:22.868Z,0
2022-11-22T16:26:22.871Z,0
2022-11-22T16:31:22.978Z,0
2022-11-22T16:36:22.873Z,0
2022-11-22T16:41:22.870Z,0
2022-11-22T16:46:22.867Z,0
2022-11-22T16:51:22.973Z,0
2022-11-22T16:56:22.874Z,0
2022-11-22T17:01:22.890Z,0
2022-11-22T17:06:22.821Z,0
2022-11-22T17:11:23.016Z,0
2022-11-22T17:16:22.846Z,0
2022-11-22T17:21:22.825Z,0
2022-11-22T17:26:22.878Z,0
2022-11-22T17:31:22.879Z,0
2022-11-22T17:36:22.865Z,0
2022-11-22T17:41:22.846Z,0
2022-11-22T17:46:22.868Z,0
2022-11-22T17:51:22.984Z,0
2022-11-22T17:56:22.844Z,0
2022-11-22T18:01:22.868Z,0
2022-11-22T18:06:22.829Z,0
2022-11-22T18:11:22.976Z,0
2022-11-22T18:16:22.826Z,0
2022-11-22T18:21:22.841Z,0
2022-11-22T18:26:39.632Z,0
2022-11-22T18:31:22.983Z,0
2022-11-22T18:36:53.269Z,0
2022-11-22T18:41:22.811Z,0
2022-11-22T18:46:22.833Z,0
2022-11-22T18:51:22.936Z,0
2022-11-22T18:56:22.830Z,0
2022-11-22T19:01:22.846Z,0
2022-11-22T19:06:22.811Z,0
2022-11-22T19:11:22.932Z,0
2022-11-22T19:16:22.818Z,0
2022-11-22T19:21:22.818Z,0
2022-11-22T19:26:22.799Z,0
2022-11-22T19:31:22.959Z,0
2022-11-22T19:36:25.291Z,0
2022-11-22T19:41:22.832Z,0
2022-11-22T19:46:22.818Z,0
2022-11-22T19:51:22.842Z,0
2022-11-22T19:56:22.806Z,0
2022-11-22T20:01:22.875Z,0
2022-11-22T20:06:22.814Z,0
2022-11-22T20:11:22.962Z,0
2022-11-22T20:16:22.820Z,0
2022-11-22T20:21:22.861Z,0
2022-11-22T20:26:22.812Z,0
2022-11-22T20:31:22.923Z,0
2022-11-22T20:36:22.786Z,0
2022-11-22T20:41:22.805Z,0
2022-11-22T20:46:22.786Z,0
2022-11-22T20:51:22.932Z,0
2022-11-22T20:56:22.781Z,0
2022-11-22T21:01:22.850Z,0
2022-11-22T21:06:22.799Z,0
2022-11-22T21:11:22.921Z,0
2022-11-22T21:16:24.085Z,0
2022-11-22T21:21:22.966Z,0
2022-11-22T21:26:22.777Z,0
2022-11-22T21:31:22.923Z,0
2022-11-22T21:36:22.768Z,0
2022-11-22T21:41:40.133Z,0
2022-11-22T21:46:22.787Z,0
2022-11-22T21:51:22.905Z,0
2022-11-22T21:56:22.764Z,0
2022-11-22T22:01:22.873Z,0
2022-11-22T22:06:22.795Z,0
2022-11-22T22:11:22.903Z,0
2022-11-22T22:16:22.773Z,0
2022-11-22T22:21:22.778Z,0
2022-11-22T22:26:22.780Z,0
2022-11-22T22:31:22.905Z,0
2022-11-22T22:36:22.774Z,0
2022-11-22T22:41:22.739Z,0
2022-11-22T22:46:22.781Z,0
2022-11-22T22:51:25.228Z,0
2022-11-22T22:56:22.746Z,0
2022-11-22T23:01:22.795Z,0
2022-11-22T23:06:22.753Z,0
2022-11-22T23:11:22.776Z,0
2022-11-22T23:16:22.734Z,0
2022-11-22T23:21:22.720Z,0
2022-11-22T23:26:22.746Z,0
2022-11-22T23:31:22.845Z,0
2022-11-22T23:36:22.746Z,0
2022-11-22T23:41:22.738Z,0
2022-11-22T23:46:22.742Z,0
2022-11-22T23:51:22.860Z,0
2022-11-22T23:56:22.727Z,0
